Time;durP1;ratioP1;P1;durP2;ratioP2;P2;SDS_P1;SDS_P2;PMS_P1;PMS_P2;Temp;Humidity;BMP_temperature;BMP_pressure;BME280_temperature;BME280_humidity;BME280_pressure;Samples;Min_cycle;Max_cycle;Signal;HPM_P1;HPM_P2
2023/04/03 00:00:57;;;;;;;0.82;0.82;;;;;;;;;;5056357;28;20031;-30
2023/04/03 00:03:24;;;;;;;1.00;1.00;;;;;;;;;;5056003;28;20031;-31
2023/04/03 00:05:50;;;;;;;0.80;0.80;;;;;;;;;;5056589;28;20029;-32
2023/04/03 00:08:17;;;;;;;1.15;1.15;;;;;;;;;;5056152;28;20032;-31
2023/04/03 00:10:43;;;;;;;0.95;0.95;;;;;;;;;;5056396;28;20413;-28
2023/04/03 00:13:09;;;;;;;0.70;0.70;;;;;;;;;;5056045;28;20083;-30
2023/04/03 00:15:36;;;;;;;1.00;1.00;;;;;;;;;;5056308;28;20040;-28
2023/04/03 00:18:03;;;;;;;0.90;0.90;;;;;;;;;;5056026;28;20479;-28
2023/04/03 00:20:29;;;;;;;1.10;1.00;;;;;;;;;;5056222;28;20025;-30
2023/04/03 00:22:55;;;;;;;1.05;1.00;;;;;;;;;;5056140;28;20029;-30
2023/04/03 00:25:22;;;;;;;0.85;0.85;;;;;;;;;;5056116;28;20025;-31
2023/04/03 00:27:48;;;;;;;0.95;0.95;;;;;;;;;;5056077;28;20029;-27
2023/04/03 00:30:15;;;;;;;1.02;1.00;;;;;;;;;;5055954;28;20375;-29
2023/04/03 00:32:42;;;;;;;0.90;0.90;;;;;;;;;;5055638;28;20020;-30
2023/04/03 00:35:08;;;;;;;0.98;0.98;;;;;;;;;;5055918;28;20444;-27
2023/04/03 00:37:34;;;;;;;1.15;1.10;;;;;;;;;;5055896;28;20029;-29
2023/04/03 00:40:00;;;;;;;2.13;1.00;;;;;;;;;;5055536;28;20025;-27
2023/04/03 00:42:26;;;;;;;1.00;1.00;;;;;;;;;;5055731;28;20042;-30
2023/04/03 00:44:56;;;;;;;0.80;0.80;;;;;;;;;;5055756;28;20025;-29
2023/04/03 00:47:22;;;;;;;1.02;1.02;;;;;;;;;;5055425;28;20453;-28
2023/04/03 00:49:49;;;;;;;1.00;1.00;;;;;;;;;;5055601;28;20120;-30
2023/04/03 00:52:17;;;;;;;0.90;0.90;;;;;;;;;;5055251;28;20028;-28
2023/04/03 00:54:44;;;;;;;1.10;1.10;;;;;;;;;;5055290;28;20021;-31
2023/04/03 00:57:10;;;;;;;0.70;0.70;;;;;;;;;;5055278;28;20029;-30
2023/04/03 00:59:40;;;;;;;0.80;0.80;;;;;;;;;;5055165;28;20151;-27
2023/04/03 01:02:06;;;;;;;1.10;1.10;;;;;;;;;;5037539;28;20051;-27
2023/04/03 01:04:36;;;;;;;0.80;0.80;;;;;;;;;;5054414;28;20471;-27
2023/04/03 01:07:10;;;;;;;0.90;0.90;;;;;;;;;;5055045;28;20033;-28
2023/04/03 01:09:37;;;;;;;0.98;0.98;;;;;;;;;;5054971;28;20467;-26
2023/04/03 01:12:18;;;;;;;1.02;1.02;;;;;;;;;;5055173;28;20111;-28
2023/04/03 01:14:45;;;;;;;1.52;0.90;;;;;;;;;;5055546;28;20021;-29
2023/04/03 01:17:27;;;;;;;0.70;0.70;;;;;;;;;;5055197;28;20403;-29
2023/04/03 01:19:53;;;;;;;;;;;;;;;;;;5055623;28;20025;-33
2023/04/03 01:22:26;;;;;;;0.90;0.90;;;;;;;;;;5054839;28;20385;-32
2023/04/03 01:24:53;;;;;;;1.02;1.02;;;;;;;;;;5054926;28;20452;-26
2023/04/03 01:27:19;;;;;;;0.90;0.90;;;;;;;;;;5054706;28;20029;-29
2023/04/03 01:29:46;;;;;;;1.00;1.00;;;;;;;;;;5054909;28;20043;-28
2023/04/03 01:32:12;;;;;;;0.90;0.90;;;;;;;;;;5054675;28;20029;-28
2023/04/03 01:34:38;;;;;;;0.70;0.70;;;;;;;;;;5054658;28;20025;-29
2023/04/03 01:37:04;;;;;;;1.08;1.08;;;;;;;;;;5054673;28;20033;-28
2023/04/03 01:39:30;;;;;;;1.30;1.10;;;;;;;;;;5054908;28;20029;-30
2023/04/03 01:41:56;;;;;;;0.98;0.98;;;;;;;;;;5054820;28;20367;-29
2023/04/03 01:44:22;;;;;;;0.90;0.90;;;;;;;;;;5054599;28;20436;-31
2023/04/03 01:46:48;;;;;;;1.10;1.10;;;;;;;;;;5054833;28;20036;-29
2023/04/03 01:49:15;;;;;;;0.88;0.88;;;;;;;;;;5054691;28;20043;-28
2023/04/03 01:51:41;;;;;;;0.90;0.90;;;;;;;;;;5054503;28;20025;-27
2023/04/03 01:54:07;;;;;;;0.85;0.85;;;;;;;;;;5054407;28;20108;-27
2023/04/03 01:56:33;;;;;;;0.90;0.90;;;;;;;;;;5054996;28;20436;-33
2023/04/03 01:58:59;;;;;;;1.13;1.02;;;;;;;;;;5054697;28;20086;-29
2023/04/03 02:01:25;;;;;;;0.93;0.93;;;;;;;;;;5054353;28;20036;-30
2023/04/03 02:03:51;;;;;;;1.00;1.00;;;;;;;;;;5054167;28;20059;-30
2023/04/03 02:06:18;;;;;;;0.90;0.90;;;;;;;;;;5054321;28;20108;-31
2023/04/03 02:08:44;;;;;;;0.60;0.60;;;;;;;;;;5054267;28;20025;-33
2023/04/03 02:11:10;;;;;;;1.00;1.00;;;;;;;;;;5054616;28;20021;-30
2023/04/03 02:13:36;;;;;;;0.70;0.70;;;;;;;;;;5054196;28;20028;-29
2023/04/03 02:16:10;;;;;;;1.20;1.10;;;;;;;;;;5056261;28;20121;-28
2023/04/03 02:18:36;;;;;;;0.90;0.90;;;;;;;;;;5058203;28;20047;-30
2023/04/03 02:21:02;;;;;;;0.85;0.85;;;;;;;;;;5058500;28;20025;-29
2023/04/03 02:23:28;;;;;;;0.90;0.90;;;;;;;;;;5058208;28;20036;-28
2023/04/03 02:26:02;;;;;;;1.05;1.05;;;;;;;;;;5058428;28;20033;-28
2023/04/03 02:28:28;;;;;;;1.23;1.13;;;;;;;;;;5058317;28;20029;-29
2023/04/03 02:30:54;;;;;;;0.90;0.90;;;;;;;;;;5058297;28;20033;-29
2023/04/03 02:33:20;;;;;;;0.90;0.90;;;;;;;;;;5058478;28;20403;-29
2023/04/03 02:35:52;;;;;;;1.05;1.05;;;;;;;;;;5058193;28;20025;-29
2023/04/03 02:38:19;;;;;;;0.80;0.80;;;;;;;;;;5057879;28;20029;-26
2023/04/03 02:40:45;;;;;;;0.90;0.90;;;;;;;;;;5058098;28;20017;-28
2023/04/03 02:43:11;;;;;;;0.70;0.70;;;;;;;;;;5057741;28;20021;-25
2023/04/03 02:45:37;;;;;;;0.80;0.80;;;;;;;;;;5057783;28;20017;-27
2023/04/03 02:48:03;;;;;;;0.90;0.80;;;;;;;;;;5058217;28;20013;-28
2023/04/03 02:50:29;;;;;;;0.90;0.90;;;;;;;;;;5058228;28;20035;-30
2023/04/03 02:52:55;;;;;;;1.00;0.70;;;;;;;;;;5057570;28;20460;-33
2023/04/03 02:55:21;;;;;;;1.02;1.02;;;;;;;;;;5057594;28;20048;-31
2023/04/03 02:57:48;;;;;;;0.73;0.73;;;;;;;;;;5057582;28;20507;-31
2023/04/03 03:00:14;;;;;;;0.75;0.75;;;;;;;;;;5057490;28;20040;-28
2023/04/03 03:02:40;;;;;;;1.10;0.90;;;;;;;;;;5057393;28;20029;-28
2023/04/03 03:05:07;;;;;;;1.08;0.95;;;;;;;;;;5057208;28;20130;-28
2023/04/03 03:07:34;;;;;;;0.88;0.88;;;;;;;;;;5057897;28;20033;-29
2023/04/03 03:10:00;;;;;;;0.70;0.70;;;;;;;;;;5057545;28;20350;-28
2023/04/03 03:12:26;;;;;;;0.88;0.88;;;;;;;;;;5057469;28;20049;-27
2023/04/03 03:14:52;;;;;;;1.13;1.10;;;;;;;;;;5057251;28;20463;-27
2023/04/03 03:17:18;;;;;;;0.80;0.80;;;;;;;;;;5057438;28;20025;-26
2023/04/03 03:19:45;;;;;;;0.65;0.65;;;;;;;;;;5057421;28;20329;-30
2023/04/03 03:22:11;;;;;;;1.15;1.00;;;;;;;;;;5057050;28;20025;-29
2023/04/03 03:24:38;;;;;;;0.93;0.90;;;;;;;;;;5057061;28;20025;-31
2023/04/03 03:27:04;;;;;;;0.70;0.70;;;;;;;;;;5056443;28;20029;-30
2023/04/03 03:29:30;;;;;;;0.80;0.80;;;;;;;;;;5056852;28;20021;-28
2023/04/03 03:31:56;;;;;;;0.82;0.82;;;;;;;;;;5056847;28;20407;-28
2023/04/03 03:34:22;;;;;;;0.77;0.77;;;;;;;;;;5056801;28;20017;-29
2023/04/03 03:36:48;;;;;;;1.05;0.90;;;;;;;;;;5057104;28;20105;-26
2023/04/03 03:39:15;;;;;;;0.70;0.70;;;;;;;;;;5057020;28;20033;-27
2023/04/03 03:41:41;;;;;;;0.60;0.60;;;;;;;;;;5057017;28;20029;-29
2023/04/03 03:44:07;;;;;;;0.90;0.90;;;;;;;;;;5056614;28;20033;-30
2023/04/03 03:46:33;;;;;;;0.68;0.68;;;;;;;;;;5056639;28;20361;-30
2023/04/03 03:48:59;;;;;;;0.60;0.60;;;;;;;;;;5056498;28;20037;-30
2023/04/03 03:51:25;;;;;;;0.70;0.70;;;;;;;;;;5056529;28;20024;-32
2023/04/03 03:53:51;;;;;;;0.60;0.60;;;;;;;;;;5056413;28;20018;-30
2023/04/03 03:56:17;;;;;;;0.80;0.80;;;;;;;;;;5056334;28;20025;-31
2023/04/03 03:58:43;;;;;;;0.70;0.70;;;;;;;;;;5056855;28;20106;-26
2023/04/03 04:01:10;;;;;;;0.80;0.80;;;;;;;;;;5056327;28;20387;-28
2023/04/03 04:03:36;;;;;;;0.52;0.52;;;;;;;;;;5055905;28;20040;-28
2023/04/03 04:06:03;;;;;;;0.90;0.90;;;;;;;;;;5056135;28;20029;-27
2023/04/03 04:08:29;;;;;;;0.95;0.95;;;;;;;;;;5056428;28;20108;-30
2023/04/03 04:10:55;;;;;;;1.10;1.10;;;;;;;;;;5056046;28;20025;-30
2023/04/03 04:13:22;;;;;;;0.85;0.85;;;;;;;;;;5056156;28;20096;-31
2023/04/03 04:15:48;;;;;;;0.75;0.75;;;;;;;;;;5055949;28;20071;-33
2023/04/03 04:18:14;;;;;;;0.68;0.68;;;;;;;;;;5055830;28;20059;-30
2023/04/03 04:20:40;;;;;;;1.08;1.00;;;;;;;;;;5056114;28;20359;-30
2023/04/03 04:23:06;;;;;;;0.70;0.70;;;;;;;;;;5055690;28;20524;-29
2023/04/03 04:25:32;;;;;;;0.80;0.80;;;;;;;;;;5055684;28;20022;-29
2023/04/03 04:27:59;;;;;;;0.82;0.82;;;;;;;;;;5055961;28;20334;-30
2023/04/03 04:30:26;;;;;;;0.68;0.68;;;;;;;;;;5055454;28;20120;-27
2023/04/03 04:32:52;;;;;;;0.60;0.60;;;;;;;;;;5055483;28;20410;-28
2023/04/03 04:35:18;;;;;;;1.92;1.02;;;;;;;;;;5055851;28;20326;-29
2023/04/03 04:37:44;;;;;;;1.10;1.00;;;;;;;;;;5054790;28;20025;-29
2023/04/03 04:40:10;;;;;;;1.95;0.70;;;;;;;;;;5055372;28;20025;-31
2023/04/03 04:42:36;;;;;;;1.52;0.93;;;;;;;;;;5055462;28;20052;-31
2023/04/03 04:45:03;;;;;;;1.08;0.98;;;;;;;;;;5055141;28;20033;-28
2023/04/03 04:47:29;;;;;;;3.75;1.02;;;;;;;;;;5055497;28;20033;-32
2023/04/03 04:49:55;;;;;;;0.75;0.75;;;;;;;;;;5055575;28;20056;-29
2023/04/03 04:52:22;;;;;;;0.60;0.60;;;;;;;;;;5055149;28;20017;-32
2023/04/03 04:54:48;;;;;;;4.28;1.00;;;;;;;;;;5055146;28;20033;-29
2023/04/03 04:57:14;;;;;;;2.05;0.60;;;;;;;;;;5037498;28;20037;-32
2023/04/03 04:59:40;;;;;;;3.95;1.02;;;;;;;;;;5055268;28;20360;-29
2023/04/03 05:02:06;;;;;;;5.55;1.35;;;;;;;;;;5055021;28;20032;-27
2023/04/03 05:04:33;;;;;;;2.15;1.30;;;;;;;;;;5054716;28;20102;-30
2023/04/03 05:06:59;;;;;;;3.28;0.98;;;;;;;;;;5055601;28;20082;-30
2023/04/03 05:09:25;;;;;;;3.67;1.05;;;;;;;;;;5055021;28;20071;-32
2023/04/03 05:11:51;;;;;;;1.05;0.85;;;;;;;;;;5054848;28;20025;-33
2023/04/03 05:14:19;;;;;;;1.88;1.42;;;;;;;;;;5055084;28;20478;-28
2023/04/03 05:16:45;;;;;;;2.70;0.90;;;;;;;;;;5054970;28;20502;-30
2023/04/03 05:19:11;;;;;;;8.75;1.40;;;;;;;;;;5055168;28;20215;-31
2023/04/03 05:21:37;;;;;;;10.35;1.58;;;;;;;;;;5054796;28;20108;-29
2023/04/03 05:24:03;;;;;;;5.80;1.50;;;;;;;;;;5037010;28;20121;-31
2023/04/03 05:26:31;;;;;;;7.88;1.33;;;;;;;;;;5054943;28;20068;-27
2023/04/03 05:28:57;;;;;;;4.82;1.20;;;;;;;;;;5054968;28;20448;-31
2023/04/03 05:31:24;;;;;;;8.00;1.17;;;;;;;;;;5055472;28;20025;-27
2023/04/03 05:33:50;;;;;;;7.05;1.02;;;;;;;;;;5054806;28;20075;-30
2023/04/03 05:36:16;;;;;;;23.38;1.88;;;;;;;;;;5054935;28;20021;-27
2023/04/03 05:38:42;;;;;;;2.15;1.25;;;;;;;;;;5054653;28;20029;-28
2023/04/03 05:41:08;;;;;;;5.32;1.08;;;;;;;;;;5054797;28;20036;-27
2023/04/03 05:43:37;;;;;;;5.30;1.30;;;;;;;;;;5054370;28;20083;-30
2023/04/03 05:46:04;;;;;;;1.92;0.95;;;;;;;;;;5054440;28;20043;-30
2023/04/03 05:48:30;;;;;;;3.67;0.80;;;;;;;;;;5054340;28;20084;-28
2023/04/03 05:50:56;;;;;;;4.50;1.27;;;;;;;;;;5054127;28;20043;-29
2023/04/03 05:53:25;;;;;;;5.68;1.27;;;;;;;;;;5036722;28;20463;-29
2023/04/03 05:55:51;;;;;;;1.65;0.88;;;;;;;;;;5054245;28;20095;-30
2023/04/03 05:58:17;;;;;;;3.10;1.70;;;;;;;;;;5054496;28;20021;-28
2023/04/03 06:03:20;;;;;;;5.40;2.53;;;;;;;;;;5386614;22;20372;-24
2023/04/03 06:05:46;;;;;;;4.07;1.40;;;;;;;;;;5054391;28;20103;-24
2023/04/03 06:08:14;;;;;;;5.28;1.25;;;;;;;;;;5054049;28;20043;-22
2023/04/03 06:10:40;;;;;;;8.07;1.35;;;;;;;;;;5054003;28;20027;-23
2023/04/03 06:13:07;;;;;;;5.93;1.50;;;;;;;;;;5054025;28;20163;-23
2023/04/03 06:15:33;;;;;;;4.28;0.90;;;;;;;;;;5037020;28;20086;-23
2023/04/03 06:18:00;;;;;;;1.60;1.23;;;;;;;;;;5054047;28;20027;-22
2023/04/03 06:20:26;;;;;;;8.15;1.42;;;;;;;;;;5036444;28;20055;-22
2023/04/03 06:22:52;;;;;;;5.82;1.60;;;;;;;;;;5053925;28;20360;-23
2023/04/03 06:25:19;;;;;;;6.45;2.20;;;;;;;;;;5054296;28;20387;-24
2023/04/03 06:27:45;;;;;;;8.77;1.90;;;;;;;;;;5054235;28;20026;-23
2023/04/03 06:30:12;;;;;;;20.77;3.13;;;;;;;;;;5053835;28;20067;-23
2023/04/03 06:32:38;;;;;;;8.80;1.63;;;;;;;;;;5053911;28;20074;-23
2023/04/03 06:35:05;;;;;;;7.03;1.48;;;;;;;;;;5036363;28;20076;-21
2023/04/03 06:37:32;;;;;;;10.77;1.60;;;;;;;;;;5036541;28;20080;-24
2023/04/03 06:40:00;;;;;;;5.68;2.03;;;;;;;;;;5054151;28;20107;-23
2023/04/03 06:42:26;;;;;;;2.13;1.27;;;;;;;;;;5054328;28;20327;-24
2023/04/03 06:44:52;;;;;;;6.50;1.60;;;;;;;;;;5053710;28;20041;-24
2023/04/03 06:47:18;;;;;;;5.32;1.38;;;;;;;;;;5053599;28;20513;-24
2023/04/03 06:49:45;;;;;;;1.95;1.15;;;;;;;;;;5053497;28;20032;-24
2023/04/03 06:52:13;;;;;;;6.50;1.63;;;;;;;;;;5053421;28;20021;-23
2023/04/03 06:54:39;;;;;;;7.85;1.50;;;;;;;;;;5053720;28;20025;-23
2023/04/03 06:57:06;;;;;;;9.00;1.52;;;;;;;;;;5036169;28;20021;-24
2023/04/03 06:59:32;;;;;;;3.42;1.17;;;;;;;;;;5036036;28;20021;-23
2023/04/03 07:01:59;;;;;;;3.72;2.20;;;;;;;;;;5054902;28;20029;-23
2023/04/03 07:04:26;;;;;;;2.92;1.00;;;;;;;;;;5056987;28;20053;-23
2023/04/03 07:06:52;;;;;;;13.63;2.28;;;;;;;;;;5057437;28;20029;-23
2023/04/03 07:09:18;;;;;;;5.78;1.50;;;;;;;;;;5057079;28;20017;-24
2023/04/03 07:11:45;;;;;;;11.82;1.40;;;;;;;;;;5057298;28;20021;-23
2023/04/03 07:14:11;;;;;;;5.60;1.50;;;;;;;;;;5056963;28;20474;-23
2023/04/03 07:16:37;;;;;;;12.55;1.40;;;;;;;;;;5056879;28;20398;-24
2023/04/03 07:19:04;;;;;;;6.32;0.95;;;;;;;;;;5057423;28;20352;-22
2023/04/03 07:21:30;;;;;;;9.73;1.33;;;;;;;;;;5056914;28;20104;-23
2023/04/03 07:23:56;;;;;;;11.20;1.40;;;;;;;;;;5039011;28;20052;-23
2023/04/03 07:26:22;;;;;;;2.72;1.42;;;;;;;;;;5056929;28;20032;-22
2023/04/03 07:28:49;;;;;;;5.20;1.50;;;;;;;;;;5056439;28;20036;-24
2023/04/03 07:31:16;;;;;;;7.45;1.38;;;;;;;;;;5056593;28;20052;-22
2023/04/03 07:33:43;;;;;;;5.70;1.00;;;;;;;;;;5056668;28;20380;-24
2023/04/03 07:36:10;;;;;;;3.28;1.60;;;;;;;;;;5056492;28;20126;-24
2023/04/03 07:38:36;;;;;;;9.18;1.67;;;;;;;;;;5056679;28;20497;-23
2023/04/03 07:41:03;;;;;;;5.63;1.50;;;;;;;;;;5056334;28;20436;-24
2023/04/03 07:43:29;;;;;;;7.80;1.95;;;;;;;;;;5038806;28;20044;-24
2023/04/03 07:45:56;;;;;;;11.02;1.85;;;;;;;;;;5056203;28;20105;-24
2023/04/03 07:48:23;;;;;;;8.45;1.63;;;;;;;;;;5056087;28;20029;-22
2023/04/03 07:50:50;;;;;;;8.90;1.73;;;;;;;;;;5056262;28;20028;-24
2023/04/03 07:53:16;;;;;;;6.25;1.38;;;;;;;;;;5038526;28;20033;-24
2023/04/03 07:55:42;;;;;;;6.78;1.20;;;;;;;;;;5056413;28;20028;-24
2023/04/03 07:58:14;;;;;;;2.92;1.83;;;;;;;;;;5038459;28;20025;-24
2023/04/03 08:00:40;;;;;;;4.05;1.48;;;;;;;;;;5055927;28;20466;-24
2023/04/03 08:03:07;;;;;;;4.03;1.00;;;;;;;;;;5055796;28;20115;-22
2023/04/03 08:05:38;;;;;;;5.80;1.23;;;;;;;;;;5055949;28;20060;-23
2023/04/03 08:08:05;;;;;;;2.00;1.38;;;;;;;;;;5055936;28;20086;-25
2023/04/03 08:10:32;;;;;;;6.93;1.98;;;;;;;;;;5055709;28;20063;-23
2023/04/03 08:12:58;;;;;;;8.82;1.60;;;;;;;;;;5055979;28;20021;-23
2023/04/03 08:15:24;;;;;;;3.72;1.40;;;;;;;;;;5056163;28;20025;-23
2023/04/03 08:17:50;;;;;;;13.25;1.77;;;;;;;;;;5055820;28;20487;-24
2023/04/03 08:20:17;;;;;;;5.40;1.33;;;;;;;;;;5056039;28;20025;-22
2023/04/03 08:22:43;;;;;;;10.07;1.52;;;;;;;;;;5055642;28;20025;-24
2023/04/03 08:25:09;;;;;;;5.40;1.40;;;;;;;;;;5055699;28;20028;-24
2023/04/03 08:27:35;;;;;;;3.40;1.45;;;;;;;;;;5038737;28;20104;-23
2023/04/03 08:30:03;;;;;;;6.38;1.33;;;;;;;;;;5055591;28;20057;-22
2023/04/03 08:32:29;;;;;;;6.32;1.48;;;;;;;;;;5038098;28;20062;-22
2023/04/03 08:34:55;;;;;;;10.38;1.33;;;;;;;;;;5055293;28;20063;-22
2023/04/03 08:37:21;;;;;;;9.20;1.63;;;;;;;;;;5037652;28;20040;-24
2023/04/03 08:39:47;;;;;;;4.25;1.25;;;;;;;;;;5055409;28;20021;-23
2023/04/03 08:42:26;;;;;;;3.25;1.40;;;;;;;;;;5055154;28;20025;-24
2023/04/03 08:44:58;;;;;;;3.22;1.25;;;;;;;;;;5055597;28;20047;-23
2023/04/03 08:47:31;;;;;;;3.08;1.23;;;;;;;;;;5055294;28;20104;-23
2023/04/03 08:50:00;;;;;;;3.90;1.38;;;;;;;;;;5055158;28;20478;-23
2023/04/03 08:52:41;;;;;;;4.03;1.30;;;;;;;;;;5055136;28;20029;-24
2023/04/03 08:55:07;;;;;;;;;;;;;;;;;;5055460;28;20025;-24
2023/04/03 08:57:35;;;;;;;8.68;4.93;;;;;;;;;;5055430;28;19912;-24
2023/04/03 09:00:03;;;;;;;2.58;1.05;;;;;;;;;;5038212;28;20039;-23
2023/04/03 09:02:33;;;;;;;1.80;1.23;;;;;;;;;;5054688;28;20025;-24
2023/04/03 09:05:00;;;;;;;4.78;1.42;;;;;;;;;;5055285;28;20033;-24
2023/04/03 09:07:31;;;;;;;3.13;1.33;;;;;;;;;;5055172;28;20403;-24
2023/04/03 09:10:01;;;;;;;7.88;2.05;;;;;;;;;;5054822;28;20037;-23
2023/04/03 09:12:27;;;;;;;9.45;1.90;;;;;;;;;;5054776;28;20040;-22
2023/04/03 09:15:02;;;;;;;6.47;1.55;;;;;;;;;;5054853;28;20025;-23
2023/04/03 09:17:31;;;;;;;1.90;1.45;;;;;;;;;;5054780;28;20025;-24
2023/04/03 09:20:15;;;;;;;3.10;1.20;;;;;;;;;;5054814;28;20463;-23
2023/04/03 09:22:43;;;;;;;5.75;1.60;;;;;;;;;;5054877;28;20455;-22
2023/04/03 09:25:12;;;;;;;3.83;1.30;;;;;;;;;;5054243;28;20028;-22
2023/04/03 09:27:38;;;;;;;10.30;2.85;;;;;;;;;;5054527;28;20027;-23
2023/04/03 09:30:06;;;;;;;8.45;1.88;;;;;;;;;;5054622;28;20021;-24
2023/04/03 09:32:34;;;;;;;3.22;1.38;;;;;;;;;;5054637;28;20094;-24
2023/04/03 09:35:08;;;;;;;12.90;1.48;;;;;;;;;;5054566;28;20367;-23
2023/04/03 09:37:36;;;;;;;11.88;1.83;;;;;;;;;;5054425;28;20025;-22
2023/04/03 09:40:04;;;;;;;6.43;1.60;;;;;;;;;;5054356;28;20035;-23
2023/04/03 09:42:31;;;;;;;4.80;1.42;;;;;;;;;;5054255;28;20029;-23
2023/04/03 09:44:57;;;;;;;14.93;2.00;;;;;;;;;;5054508;28;20025;-22
2023/04/03 09:47:23;;;;;;;15.88;2.72;;;;;;;;;;5055422;28;20029;-24
2023/04/03 09:49:49;;;;;;;8.88;2.40;;;;;;;;;;5054633;28;20025;-23
2023/04/03 09:52:19;;;;;;;5.53;1.30;;;;;;;;;;5054477;28;20029;-24
2023/04/03 09:54:45;;;;;;;5.35;1.63;;;;;;;;;;5054352;28;20025;-23
2023/04/03 09:57:13;;;;;;;6.30;1.30;;;;;;;;;;5054175;28;20032;-23
2023/04/03 09:59:47;;;;;;;2.47;1.13;;;;;;;;;;5054244;28;20329;-24
2023/04/03 10:02:17;;;;;;;10.45;2.47;;;;;;;;;;5054405;28;20033;-25
2023/04/03 10:04:43;;;;;;;5.95;1.67;;;;;;;;;;5014578;28;20488;-23
2023/04/03 10:07:27;;;;;;;12.55;2.42;;;;;;;;;;5014869;28;20346;-23
2023/04/03 10:09:57;;;;;;;10.48;1.90;;;;;;;;;;5014568;28;20072;-23
2023/04/03 10:12:23;;;;;;;3.95;1.40;;;;;;;;;;5014714;28;20022;-21
2023/04/03 10:14:57;;;;;;;2.58;1.55;;;;;;;;;;5014771;28;20080;-23
2023/04/03 10:17:26;;;;;;;4.82;1.50;;;;;;;;;;5015050;28;20022;-22
2023/04/03 10:19:52;;;;;;;9.57;1.77;;;;;;;;;;5014410;28;20022;-23
2023/04/03 10:22:21;;;;;;;5.68;3.33;;;;;;;;;;5014357;28;20030;-23
2023/04/03 10:24:47;;;;;;;3.28;1.02;;;;;;;;;;5014376;28;20053;-24
2023/04/03 10:27:32;;;;;;;7.13;1.55;;;;;;;;;;5014271;28;20044;-23
2023/04/03 10:29:58;;;;;;;4.78;1.20;;;;;;;;;;5014501;28;20109;-25
2023/04/03 10:32:31;;;;;;;3.45;1.45;;;;;;;;;;5013194;28;20416;-24
2023/04/03 10:35:08;;;;;;;5.90;1.23;;;;;;;;;;5014194;28;20018;-22
2023/04/03 10:37:41;;;;;;;7.10;1.80;;;;;;;;;;5016588;28;20033;-24
2023/04/03 10:40:20;;;;;;;3.10;1.40;;;;;;;;;;5018072;28;20026;-23
2023/04/03 10:42:52;;;;;;;4.85;1.23;;;;;;;;;;5018083;28;20022;-23
2023/04/03 10:45:21;;;;;;;5.47;1.27;;;;;;;;;;5017855;28;20029;-24
2023/04/03 10:47:50;;;;;;;2.70;1.73;;;;;;;;;;5018067;28;20050;-23
2023/04/03 10:50:26;;;;;;;2.03;1.35;;;;;;;;;;5018020;28;20503;-25
2023/04/03 10:53:04;;;;;;;7.07;2.05;;;;;;;;;;5016764;28;20022;-23
2023/04/03 10:55:40;;;;;;;4.40;1.48;;;;;;;;;;5018100;28;20455;-24
2023/04/03 10:58:07;;;;;;;5.25;1.65;;;;;;;;;;5016775;28;20026;-24
2023/04/03 11:00:41;;;;;;;8.93;1.77;;;;;;;;;;5017940;28;20026;-24
2023/04/03 11:03:12;;;;;;;2.78;2.10;;;;;;;;;;5032173;28;20048;-24
2023/04/03 11:05:38;;;;;;;;;;;;;;;;;;5057679;28;20111;-24
2023/04/03 11:08:20;;;;;;;1.58;1.13;;;;;;;;;;5057532;28;19955;-24
2023/04/03 11:10:47;;;;;;;4.45;1.65;;;;;;;;;;5057103;28;20119;-24
2023/04/03 11:13:15;;;;;;;3.58;2.00;;;;;;;;;;5057019;28;20021;-24
2023/04/03 11:15:42;;;;;;;7.22;1.75;;;;;;;;;;5057037;28;20097;-24
2023/04/03 11:18:16;;;;;;;11.40;2.13;;;;;;;;;;5057320;28;20161;-23
2023/04/03 11:20:44;;;;;;;6.03;1.63;;;;;;;;;;5057033;28;20409;-22
2023/04/03 11:23:16;;;;;;;6.65;1.48;;;;;;;;;;5056858;28;20028;-23
2023/04/03 11:25:43;;;;;;;8.13;2.15;;;;;;;;;;5057452;28;20028;-24
2023/04/03 11:28:13;;;;;;;6.35;2.15;;;;;;;;;;5056767;28;20029;-24
2023/04/03 11:30:43;;;;;;;4.57;1.95;;;;;;;;;;5039035;28;20059;-23
2023/04/03 11:33:12;;;;;;;8.55;1.60;;;;;;;;;;5038878;28;20025;-24
2023/04/03 11:35:43;;;;;;;3.78;1.80;;;;;;;;;;5039046;28;20025;-23
2023/04/03 11:38:15;;;;;;;5.60;1.65;;;;;;;;;;5056765;28;20036;-22
2023/04/03 11:40:41;;;;;;;9.25;1.55;;;;;;;;;;5056940;28;20166;-22
2023/04/03 11:43:18;;;;;;;9.13;1.95;;;;;;;;;;5057262;28;20301;-23
2023/04/03 11:46:07;;;;;;;6.45;2.22;;;;;;;;;;5038939;28;20341;-22
2023/04/03 11:48:33;;;;;;;7.40;2.00;;;;;;;;;;5056260;28;20098;-22
2023/04/03 11:51:28;;;;;;;3.08;1.25;;;;;;;;;;5056499;28;20020;-24
2023/04/03 11:53:54;;;;;;;8.85;2.03;;;;;;;;;;5039441;28;20033;-23
2023/04/03 11:56:20;;;;;;;5.30;1.52;;;;;;;;;;5056205;28;20025;-25
2023/04/03 11:59:05;;;;;;;2.78;1.45;;;;;;;;;;5056387;28;20032;-24
2023/04/03 12:01:51;;;;;;;5.88;1.60;;;;;;;;;;5056241;28;20048;-23
2023/04/03 12:04:18;;;;;;;4.25;1.42;;;;;;;;;;5055874;28;20136;-23
2023/04/03 12:06:48;;;;;;;4.78;1.77;;;;;;;;;;5056128;28;20515;-23
2023/04/03 12:09:35;;;;;;;7.80;1.33;;;;;;;;;;5056362;28;20033;-22
2023/04/03 12:12:21;;;;;;;10.38;1.90;;;;;;;;;;5055939;28;20029;-22
2023/04/03 12:14:47;;;;;;;11.05;2.00;;;;;;;;;;5056609;28;20052;-23
2023/04/03 12:17:21;;;;;;;6.40;1.80;;;;;;;;;;5056262;28;20100;-22
2023/04/03 12:19:47;;;;;;;9.93;1.92;;;;;;;;;;5055933;28;20032;-24
2023/04/03 12:22:15;;;;;;;11.30;2.92;;;;;;;;;;5055915;28;20025;-23
2023/04/03 12:24:51;;;;;;;8.43;1.80;;;;;;;;;;5056122;28;20087;-24
2023/04/03 12:27:23;;;;;;;4.28;1.63;;;;;;;;;;5056189;28;20025;-24
2023/04/03 12:29:51;;;;;;;11.75;1.73;;;;;;;;;;5056033;28;20348;-24
2023/04/03 12:32:27;;;;;;;7.60;1.75;;;;;;;;;;5055565;28;20021;-24
2023/04/03 12:35:08;;;;;;;4.85;1.33;;;;;;;;;;5056198;28;20025;-23
2023/04/03 12:37:34;;;;;;;;;;;;;;;;;;5055977;28;20028;-23
2023/04/03 12:40:19;;;;;;;6.57;2.50;;;;;;;;;;5056093;28;19905;-23
2023/04/03 12:42:45;;;;;;;5.80;2.53;;;;;;;;;;5055614;28;20101;-23
2023/04/03 12:45:22;;;;;;;6.47;1.42;;;;;;;;;;5055437;28;20063;-22
2023/04/03 12:47:52;;;;;;;11.65;1.77;;;;;;;;;;5055634;28;20037;-27
2023/04/03 12:50:19;;;;;;;10.93;2.40;;;;;;;;;;5055561;28;20346;-23
2023/04/03 12:52:48;;;;;;;4.05;1.75;;;;;;;;;;5055350;28;20021;-23
2023/04/03 12:55:19;;;;;;;5.80;1.80;;;;;;;;;;5055428;28;20025;-22
2023/04/03 12:57:45;;;;;;;9.55;2.45;;;;;;;;;;5055507;28;20028;-23
2023/04/03 13:00:21;;;;;;;3.35;1.48;;;;;;;;;;5054369;28;20167;-25
2023/04/03 13:02:47;;;;;;;5.47;1.73;;;;;;;;;;5054931;28;20471;-24
2023/04/03 13:05:19;;;;;;;7.05;1.75;;;;;;;;;;5055283;28;20028;-23
2023/04/03 13:07:49;;;;;;;6.63;1.50;;;;;;;;;;5054887;28;20028;-22
2023/04/03 13:10:16;;;;;;;6.60;1.70;;;;;;;;;;5054961;28;20044;-23
2023/04/03 13:13:05;;;;;;;6.57;1.75;;;;;;;;;;5054552;28;20021;-23
2023/04/03 13:15:40;;;;;;;5.68;2.10;;;;;;;;;;5054485;28;20028;-23
2023/04/03 13:18:21;;;;;;;4.15;2.22;;;;;;;;;;5054739;28;20452;-24
2023/04/03 13:20:48;;;;;;;4.20;1.67;;;;;;;;;;5055001;28;20029;-24
2023/04/03 13:23:17;;;;;;;8.38;1.65;;;;;;;;;;5054836;28;20043;-24
2023/04/03 13:25:44;;;;;;;8.15;1.77;;;;;;;;;;5054698;28;20474;-25
2023/04/03 13:28:13;;;;;;;7.22;3.13;;;;;;;;;;5054528;28;20108;-23
2023/04/03 13:30:40;;;;;;;4.45;2.70;;;;;;;;;;5054966;28;20116;-24
2023/04/03 13:33:19;;;;;;;8.65;2.70;;;;;;;;;;5054411;28;20025;-23
2023/04/03 13:35:46;;;;;;;6.22;2.45;;;;;;;;;;5054713;28;20024;-23
2023/04/03 13:38:18;;;;;;;8.95;2.38;;;;;;;;;;5055138;28;20100;-23
2023/04/03 13:41:04;;;;;;;10.27;2.40;;;;;;;;;;5054312;28;20033;-24
2023/04/03 13:43:32;;;;;;;4.40;1.48;;;;;;;;;;5054236;28;20040;-22
2023/04/03 13:46:04;;;;;;;7.75;1.83;;;;;;;;;;5054302;28;20112;-25
2023/04/03 13:48:35;;;;;;;4.60;1.83;;;;;;;;;;5054257;28;20352;-23
2023/04/03 13:51:03;;;;;;;9.98;2.03;;;;;;;;;;5054402;28;20410;-23
2023/04/03 13:53:31;;;;;;;4.45;1.63;;;;;;;;;;5054220;28;20036;-24
2023/04/03 13:56:03;;;;;;;5.13;2.00;;;;;;;;;;5054071;28;20355;-24
2023/04/03 13:58:31;;;;;;;3.60;1.70;;;;;;;;;;5054266;28;20021;-24
2023/04/03 14:01:16;;;;;;;8.43;1.95;;;;;;;;;;5053920;28;20382;-23
2023/04/03 14:03:47;;;;;;;5.20;1.70;;;;;;;;;;5053726;28;20049;-23
2023/04/03 14:06:17;;;;;;;8.77;2.50;;;;;;;;;;5036400;28;20025;-23
2023/04/03 14:08:44;;;;;;;15.65;3.08;;;;;;;;;;5053888;28;20032;-22
2023/04/03 14:11:20;;;;;;;7.55;2.28;;;;;;;;;;5056002;28;20017;-23
2023/04/03 14:13:47;;;;;;;7.95;1.55;;;;;;;;;;5058242;28;20017;-22
2023/04/03 14:16:19;;;;;;;7.88;2.05;;;;;;;;;;5041087;28;20025;-23
2023/04/03 14:18:45;;;;;;;5.57;2.42;;;;;;;;;;5058257;28;20329;-23
2023/04/03 14:21:13;;;;;;;3.00;1.73;;;;;;;;;;5058248;28;20024;-23
2023/04/03 14:23:39;;;;;;;9.25;2.08;;;;;;;;;;5058681;28;20029;-22
2023/04/03 14:26:09;;;;;;;12.07;2.58;;;;;;;;;;5057911;28;20025;-24
2023/04/03 14:28:35;;;;;;;2.60;1.50;;;;;;;;;;5058067;28;20021;-24
2023/04/03 14:31:01;;;;;;;8.85;1.88;;;;;;;;;;5057777;28;20029;-23
2023/04/03 14:33:30;;;;;;;7.43;1.95;;;;;;;;;;5057896;28;20032;-23
2023/04/03 14:35:57;;;;;;;4.22;1.70;;;;;;;;;;5057865;28;20049;-22
2023/04/03 14:38:27;;;;;;;5.30;1.90;;;;;;;;;;5057676;28;20025;-23
2023/04/03 14:40:54;;;;;;;8.27;2.05;;;;;;;;;;5057756;28;20049;-24
2023/04/03 14:43:21;;;;;;;8.70;2.33;;;;;;;;;;5057284;28;20021;-23
2023/04/03 14:45:47;;;;;;;7.97;3.00;;;;;;;;;;5057638;28;20365;-25
2023/04/03 14:48:17;;;;;;;7.10;1.50;;;;;;;;;;5057485;28;20036;-23
2023/04/03 14:50:43;;;;;;;5.15;1.60;;;;;;;;;;5057205;28;20021;-23
2023/04/03 14:53:11;;;;;;;8.02;1.98;;;;;;;;;;5057218;28;20021;-24